Stateline, Nevada
Current Conditions -  °F | °C
As of 1:53 PM on Friday 24 Oct 2014 (Local Time) from KTVL Reporting Station
Clear Clear  
Wind Chill: 71°   Ceiling: Unl
Heat Index: 71°   Visibility: 10mi
Dew Point: 17°   Wind: 17mph
Humidity: 13%   Direction: 190°S
Pressure: 30.08"   Gusts: 29mph
Location:  38.97°N, 119.94°W
Report Text: KTVL 242053Z AUTO 19015G25KT 10SM CLR 22/M08 A3008 RMK AO2 PK WND 19030/1954 SLP141 T02171083 57017
Loading
Personal Weather Stations






























Interactive Weather Map
Tropical Storm Tracking
New forecast layout! Learn more

10-Day Weather Forecast

Advertisements
Track Severe Weather on mobile